Time;durP1;ratioP1;P1;durP2;ratioP2;P2;SDS_P1;SDS_P2;PMS_P1;PMS_P2;Temp;Humidity;BMP_temperature;BMP_pressure;BME280_temperature;BME280_humidity;BME280_pressure;Samples;Min_cycle;Max_cycle;Signal;HPM_P1;HPM_P2
2023/09/11 00:00:36;;;;;;;12.82;7.03;;;24.50;56.80;;;;;;4999919;28;20046;-53
2023/09/11 00:03:03;;;;;;;13.98;6.97;;;24.50;56.40;;;;;;4997564;28;20053;-53
2023/09/11 00:05:31;;;;;;;14.40;7.10;;;24.40;56.40;;;;;;4996422;28;20402;-54
2023/09/11 00:07:58;;;;;;;14.50;7.35;;;24.40;56.50;;;;;;4997551;28;20053;-53
2023/09/11 00:10:26;;;;;;;11.73;6.35;;;24.40;56.50;;;;;;5000493;28;20418;-54
2023/09/11 00:12:54;;;;;;;12.38;6.78;;;24.30;56.50;;;;;;4999179;28;20513;-57
2023/09/11 00:15:21;;;;;;;15.75;6.40;;;24.30;56.50;;;;;;5000543;28;20054;-58
2023/09/11 00:17:48;;;;;;;12.52;6.10;;;24.20;56.50;;;;;;4998546;28;20058;-57
2023/09/11 00:20:15;;;;;;;13.32;6.93;;;24.20;56.50;;;;;;4997958;28;20061;-55
2023/09/11 00:22:43;;;;;;;11.93;6.18;;;24.20;56.60;;;;;;4999664;28;20398;-54
2023/09/11 00:25:10;;;;;;;10.52;5.72;;;24.20;56.60;;;;;;4998938;28;20057;-54
2023/09/11 00:27:39;;;;;;;9.13;6.20;;;24.10;56.60;;;;;;4997974;28;20050;-55
2023/09/11 00:30:07;;;;;;;9.05;5.82;;;24.10;56.60;;;;;;4999399;28;20058;-55
2023/09/11 00:32:35;;;;;;;16.90;6.22;;;24.10;56.70;;;;;;4997888;28;20058;-54
2023/09/11 00:35:02;;;;;;;8.85;5.70;;;24.10;56.70;;;;;;4998214;28;20065;-57
2023/09/11 00:37:29;;;;;;;13.38;5.88;;;24.10;56.70;;;;;;4997905;28;20417;-55
2023/09/11 00:39:56;;;;;;;12.13;6.50;;;24.00;56.70;;;;;;5000193;28;20061;-53
2023/09/11 00:42:24;;;;;;;10.80;6.03;;;24.00;56.70;;;;;;4998411;28;20046;-57
2023/09/11 00:44:53;;;;;;;10.13;6.10;;;24.00;56.70;;;;;;4999148;28;20490;-57
2023/09/11 00:47:21;;;;;;;13.38;6.70;;;24.00;56.80;;;;;;4997694;28;20049;-57
2023/09/11 00:49:48;;;;;;;10.65;5.90;;;24.00;56.80;;;;;;4999209;28;20062;-52
2023/09/11 00:52:15;;;;;;;16.33;6.30;;;23.90;56.70;;;;;;4996312;28;20045;-52
2023/09/11 00:54:43;;;;;;;14.45;6.97;;;23.90;56.80;;;;;;4997633;28;20046;-52
2023/09/11 00:57:10;;;;;;;16.67;6.75;;;23.90;56.80;;;;;;4998764;28;20054;-53
2023/09/11 00:59:37;;;;;;;15.48;6.82;;;23.80;56.80;;;;;;4999233;28;20064;-50
2023/09/11 01:02:07;;;;;;;11.55;6.80;;;23.90;56.90;;;;;;5001489;28;20050;-49
2023/09/11 01:04:35;;;;;;;14.10;7.18;;;23.80;56.90;;;;;;5000951;28;20506;-54
2023/09/11 01:07:02;;;;;;;13.18;7.10;;;23.80;56.90;;;;;;4999442;28;20074;-58
2023/09/11 01:09:30;;;;;;;10.73;6.35;;;23.80;56.90;;;;;;5000772;28;20426;-56
2023/09/11 01:11:57;;;;;;;10.95;5.93;;;23.80;56.90;;;;;;5001324;28;20050;-52
2023/09/11 01:14:24;;;;;;;12.52;6.18;;;23.70;56.90;;;;;;5001208;28;20049;-57
2023/09/11 01:17:01;;;;;;;13.00;6.40;;;23.70;56.90;;;;;;5001631;28;20051;-54
2023/09/11 01:19:45;;;;;;;11.48;6.07;;;23.70;57.00;;;;;;5001419;28;20073;-55
2023/09/11 01:22:32;;;;;;;8.60;5.60;;;23.70;57.10;;;;;;5000996;28;20544;-57
2023/09/11 01:25:11;;;;;;;13.35;6.20;;;23.70;57.10;;;;;;5001391;28;20474;-56
2023/09/11 01:28:08;;;;;;;11.23;6.10;;;23.70;57.10;;;;;;5000984;28;20045;-55
2023/09/11 01:30:38;;;;;;;14.32;6.55;;;23.60;57.00;;;;;;5001147;28;20049;-54
2023/09/11 01:33:05;;;;;;;11.10;5.68;;;23.60;57.00;;;;;;5002495;28;20057;-56
2023/09/11 01:35:32;;;;;;;10.60;5.85;;;23.60;57.00;;;;;;5000304;28;20061;-55
2023/09/11 01:38:00;;;;;;;9.65;5.70;;;23.50;57.00;;;;;;5000749;28;20065;-55
2023/09/11 01:40:30;;;;;;;11.35;5.63;;;23.60;57.00;;;;;;5004039;28;20387;-55
2023/09/11 01:42:59;;;;;;;13.63;6.00;;;23.50;57.00;;;;;;5000701;28;20057;-55
2023/09/11 01:45:27;;;;;;;11.02;6.10;;;23.50;57.10;;;;;;4998846;28;20053;-53
2023/09/11 01:47:56;;;;;;;11.60;5.63;;;23.50;57.10;;;;;;5001858;28;20050;-54
2023/09/11 01:50:25;;;;;;;10.90;6.07;;;23.50;57.10;;;;;;5001126;28;20518;-57
2023/09/11 01:52:52;;;;;;;11.95;6.53;;;23.50;57.10;;;;;;5000452;28;20053;-57
2023/09/11 01:55:19;;;;;;;11.27;6.50;;;23.40;57.10;;;;;;5001848;28;20339;-57
2023/09/11 01:57:47;;;;;;;9.90;5.50;;;23.50;57.20;;;;;;5002293;28;20053;-53
2023/09/11 02:00:15;;;;;;;14.48;6.28;;;23.40;57.10;;;;;;5002738;28;20065;-56
2023/09/11 02:02:42;;;;;;;13.30;6.03;;;23.40;57.10;;;;;;4999860;28;20058;-55
2023/09/11 02:05:11;;;;;;;14.52;5.97;;;23.40;57.20;;;;;;4998840;28;20065;-56
2023/09/11 02:07:38;;;;;;;12.00;5.80;;;23.40;57.20;;;;;;4998382;28;20076;-56
2023/09/11 02:10:07;;;;;;;9.75;5.50;;;23.40;57.20;;;;;;5003270;28;20504;-57
2023/09/11 02:12:34;;;;;;;11.15;6.15;;;23.40;57.20;;;;;;4999356;28;20053;-56
2023/09/11 02:18:24;;;;;;;17.85;6.18;;;23.30;57.20;;;;;;5000684;28;20505;-52
2023/09/11 02:20:52;;;;;;;16.33;6.22;;;23.30;57.00;;;;;;5001131;28;20478;-57
2023/09/11 02:23:20;;;;;;;11.48;6.15;;;23.30;57.10;;;;;;4996995;28;20058;-57
2023/09/11 02:25:48;;;;;;;9.55;5.63;;;23.30;57.10;;;;;;5001248;28;20068;-51
2023/09/11 02:28:15;;;;;;;10.57;5.22;;;23.20;57.10;;;;;;4999892;28;20102;-51
2023/09/11 02:30:42;;;;;;;11.70;5.95;;;23.20;57.10;;;;;;5000696;28;20050;-51
2023/09/11 02:33:09;;;;;;;10.77;5.65;;;23.20;57.20;;;;;;5001213;28;20413;-53
2023/09/11 02:35:37;;;;;;;8.35;5.45;;;23.20;57.20;;;;;;5000855;28;20622;-53
2023/09/11 02:38:06;;;;;;;9.20;5.47;;;23.10;57.20;;;;;;5000132;28;20517;-52
2023/09/11 02:40:36;;;;;;;10.98;5.63;;;23.10;57.20;;;;;;5001423;28;20441;-52
2023/09/11 02:43:03;;;;;;;10.27;6.10;;;23.10;57.20;;;;;;4999979;28;20413;-52
2023/09/11 02:45:30;;;;;;;8.43;5.20;;;23.10;57.20;;;;;;5000338;28;20053;-51
2023/09/11 02:47:57;;;;;;;9.90;5.65;;;23.10;57.30;;;;;;5001242;28;20054;-53
2023/09/11 02:50:25;;;;;;;11.25;5.80;;;23.10;57.20;;;;;;4999228;28;20062;-50
2023/09/11 02:52:52;;;;;;;9.75;5.18;;;23.10;57.30;;;;;;4998163;28;20073;-56
2023/09/11 02:55:20;;;;;;;15.65;6.38;;;23.10;57.30;;;;;;5001819;28;20533;-51
2023/09/11 02:57:48;;;;;;;10.30;5.93;;;23.10;57.30;;;;;;5000952;28;20057;-50
2023/09/11 03:00:15;;;;;;;10.38;5.68;;;23.00;57.20;;;;;;4999067;28;20054;-53
2023/09/11 03:02:42;;;;;;;11.52;5.72;;;23.00;57.30;;;;;;4997101;28;20054;-49
2023/09/11 03:05:09;;;;;;;11.15;5.78;;;23.00;57.30;;;;;;4997978;28;20050;-54
2023/09/11 03:07:37;;;;;;;10.02;5.85;;;23.00;57.30;;;;;;4999599;28;20058;-52
2023/09/11 03:10:06;;;;;;;14.32;6.35;;;23.00;57.30;;;;;;4998588;28;20058;-58
2023/09/11 03:12:35;;;;;;;12.48;6.32;;;23.00;57.30;;;;;;4995391;28;20046;-54
2023/09/11 03:15:03;;;;;;;11.18;5.57;;;23.00;57.30;;;;;;5000707;28;20058;-54
2023/09/11 03:17:31;;;;;;;21.30;8.65;;;22.90;57.30;;;;;;4998382;28;20062;-56
2023/09/11 03:19:58;;;;;;;21.55;9.13;;;22.90;57.40;;;;;;4999278;28;20448;-50
2023/09/11 03:22:25;;;;;;;20.60;10.82;;;22.90;57.40;;;;;;4998407;28;20055;-53
2023/09/11 03:24:52;;;;;;;13.50;7.20;;;22.90;57.40;;;;;;4998593;28;20410;-52
2023/09/11 03:27:20;;;;;;;16.60;7.10;;;22.90;57.40;;;;;;4996929;28;20049;-51
2023/09/11 03:29:51;;;;;;;9.68;5.93;;;22.90;57.40;;;;;;4999740;28;20057;-57
2023/09/11 03:32:18;;;;;;;9.07;5.55;;;22.80;57.40;;;;;;4997807;28;20042;-53
2023/09/11 03:34:46;;;;;;;13.40;6.05;;;22.80;57.40;;;;;;4999374;28;20529;-49
2023/09/11 03:37:13;;;;;;;11.07;5.57;;;22.80;57.40;;;;;;4995884;28;20054;-54
2023/09/11 03:39:40;;;;;;;6.75;5.65;;;22.80;57.40;;;;;;4998780;28;20486;-49
2023/09/11 03:42:08;;;;;;;9.23;5.50;;;22.80;57.50;;;;;;4997690;28;20045;-51
2023/09/11 03:44:35;;;;;;;11.38;5.85;;;22.80;57.50;;;;;;4999613;28;20050;-57
2023/09/11 03:47:04;;;;;;;12.90;5.72;;;22.80;57.50;;;;;;4999070;28;20069;-50
2023/09/11 03:49:31;;;;;;;8.82;5.43;;;22.80;57.50;;;;;;4994922;28;20054;-56
2023/09/11 03:51:58;;;;;;;11.00;6.28;;;22.70;57.40;;;;;;4997563;28;20057;-56
2023/09/11 03:54:26;;;;;;;11.23;6.38;;;22.70;57.50;;;;;;5001463;28;20042;-50
2023/09/11 03:56:53;;;;;;;11.38;6.00;;;22.70;57.40;;;;;;5001930;28;20505;-52
2023/09/11 03:59:21;;;;;;;9.75;5.85;;;22.70;57.50;;;;;;5001171;28;20075;-51
2023/09/11 04:01:48;;;;;;;14.75;5.82;;;22.70;57.50;;;;;;5001390;28;20514;-53
2023/09/11 04:04:16;;;;;;;12.77;6.65;;;22.70;57.50;;;;;;5002877;28;20057;-53
2023/09/11 04:06:45;;;;;;;14.23;6.80;;;22.70;57.50;;;;;;4998982;28;20053;-54
2023/09/11 04:09:12;;;;;;;11.43;6.07;;;22.60;57.50;;;;;;4998756;28;20133;-51
2023/09/11 04:11:40;;;;;;;15.88;6.28;;;22.60;57.50;;;;;;5001280;28;20058;-51
2023/09/11 04:14:07;;;;;;;18.50;7.00;;;22.60;57.50;;;;;;5001593;28;20050;-53
2023/09/11 04:16:34;;;;;;;14.15;6.95;;;22.60;57.50;;;;;;5000033;28;20432;-52
2023/09/11 04:19:03;;;;;;;8.43;5.78;;;22.60;57.60;;;;;;5001534;28;20497;-48
2023/09/11 04:21:31;;;;;;;11.98;6.10;;;22.60;58.10;;;;;;5000463;28;20046;-52
2023/09/11 04:23:59;;;;;;;15.63;6.20;;;22.50;57.60;;;;;;5001093;28;20054;-52
2023/09/11 04:26:26;;;;;;;15.68;6.70;;;22.50;57.60;;;;;;5001726;28;20060;-54
2023/09/11 04:28:55;;;;;;;15.32;6.47;;;22.50;57.60;;;;;;5002396;28;20060;-51
2023/09/11 04:31:22;;;;;;;20.13;9.50;;;22.50;57.70;;;;;;5003657;28;20065;-52
2023/09/11 04:33:49;;;;;;;16.42;7.90;;;22.50;57.70;;;;;;5005362;28;20054;-52
2023/09/11 04:36:16;;;;;;;11.23;7.13;;;22.50;57.70;;;;;;5005271;28;20058;-53
2023/09/11 04:38:45;;;;;;;18.48;8.20;;;22.50;57.60;;;;;;5005462;28;20505;-55
2023/09/11 04:41:13;;;;;;;13.43;7.15;;;22.40;57.60;;;;;;4995663;28;20060;-53
2023/09/11 04:43:40;;;;;;;13.63;6.60;;;22.40;57.60;;;;;;5000157;28;20046;-51
2023/09/11 04:46:08;;;;;;;20.65;7.25;;;22.40;57.60;;;;;;4990140;28;20054;-51
2023/09/11 04:48:36;;;;;;;14.20;6.40;;;22.40;57.60;;;;;;4995011;28;20057;-48
2023/09/11 04:51:03;;;;;;;11.50;6.07;;;22.40;57.60;;;;;;4995075;28;20061;-53
2023/09/11 04:53:30;;;;;;;11.13;6.45;;;22.40;57.60;;;;;;4996913;28;20473;-55
2023/09/11 04:55:59;;;;;;;11.27;5.68;;;22.30;57.60;;;;;;4996085;28;20833;-52
2023/09/11 04:58:26;;;;;;;12.32;6.15;;;22.30;57.70;;;;;;4997715;28;20050;-53
2023/09/11 05:00:53;;;;;;;13.23;6.53;;;22.30;57.70;;;;;;4997779;28;20056;-55
2023/09/11 05:03:21;;;;;;;14.60;7.72;;;22.30;57.70;;;;;;4997230;28;20065;-56
2023/09/11 05:05:49;;;;;;;11.27;7.30;;;22.30;57.70;;;;;;4994496;28;20050;-54
2023/09/11 05:08:16;;;;;;;19.70;6.85;;;22.20;57.70;;;;;;4997425;28;20054;-52
2023/09/11 05:10:44;;;;;;;17.35;7.00;;;22.20;57.70;;;;;;4995978;28;20060;-51
2023/09/11 05:13:12;;;;;;;11.45;6.28;;;22.20;57.70;;;;;;4995638;28;20054;-57
2023/09/11 05:15:40;;;;;;;12.57;5.82;;;22.20;57.70;;;;;;4995129;28;20053;-52
2023/09/11 05:18:07;;;;;;;14.48;5.82;;;22.20;57.70;;;;;;4996617;28;20754;-52
2023/09/11 05:20:34;;;;;;;12.25;6.32;;;22.20;57.80;;;;;;4997474;28;20401;-55
2023/09/11 05:23:02;;;;;;;13.15;6.13;;;22.20;57.80;;;;;;4993798;28;20053;-54
2023/09/11 05:25:29;;;;;;;11.93;6.85;;;22.20;57.80;;;;;;4997657;28;20060;-56
2023/09/11 05:27:56;;;;;;;12.60;5.93;;;22.20;57.80;;;;;;4998960;28;20054;-54
2023/09/11 05:30:25;;;;;;;12.98;6.55;;;22.20;57.80;;;;;;5002680;28;20076;-57
2023/09/11 05:32:52;;;;;;;14.20;5.95;;;22.20;58.10;;;;;;5001958;28;20058;-53
2023/09/11 05:35:21;;;;;;;10.23;5.30;;;22.20;57.80;;;;;;5001861;28;20057;-57
2023/09/11 05:37:48;;;;;;;12.90;5.45;;;22.20;57.90;;;;;;4999763;28;20057;-53
2023/09/11 05:40:15;;;;;;;13.77;5.93;;;22.20;57.90;;;;;;5001904;28;20057;-54
2023/09/11 05:42:43;;;;;;;14.27;5.70;;;22.20;57.90;;;;;;5001705;28;20054;-54
2023/09/11 05:45:11;;;;;;;11.90;5.65;;;22.20;57.90;;;;;;5003521;28;20054;-54
2023/09/11 05:47:40;;;;;;;9.65;5.70;;;22.20;58.00;;;;;;5001139;28;20409;-52
2023/09/11 05:50:09;;;;;;;17.15;6.05;;;22.20;58.00;;;;;;5003411;28;20050;-54
2023/09/11 05:52:36;;;;;;;12.02;5.75;;;22.20;58.00;;;;;;5000293;28;20057;-50
2023/09/11 05:55:03;;;;;;;10.30;5.78;;;22.20;58.00;;;;;;5003939;28;20149;-54
2023/09/11 05:57:31;;;;;;;13.27;6.07;;;22.20;58.00;;;;;;5000567;28;20513;-52
2023/09/11 05:59:58;;;;;;;13.35;6.57;;;22.20;58.00;;;;;;5001985;28;20064;-53
2023/09/11 06:02:25;;;;;;;12.32;6.00;;;22.30;58.10;;;;;;5000956;28;20054;-54
2023/09/11 06:04:54;;;;;;;18.48;5.90;;;22.30;58.10;;;;;;5002601;28;20064;-53
2023/09/11 06:07:21;;;;;;;15.27;6.00;;;22.20;58.10;;;;;;5001697;28;20057;-58
2023/09/11 06:14:07;;;;;;;12.60;5.35;;;22.30;58.10;;;;;;5003515;28;20413;-54
2023/09/11 06:16:34;;;;;;;12.98;6.60;;;22.30;58.10;;;;;;5002723;28;20065;-55
2023/09/11 06:19:02;;;;;;;10.98;5.72;;;22.30;58.00;;;;;;4999429;28;20065;-49
2023/09/11 06:21:30;;;;;;;16.67;5.70;;;22.30;58.10;;;;;;5001465;28;20058;-54
2023/09/11 06:23:57;;;;;;;10.82;5.65;;;22.30;58.10;;;;;;5000600;28;20049;-52
2023/09/11 06:26:25;;;;;;;14.93;6.40;;;22.40;58.20;;;;;;5002809;28;20497;-47
2023/09/11 06:28:52;;;;;;;12.52;5.97;;;22.40;58.20;;;;;;5001633;28;20050;-52
2023/09/11 06:31:21;;;;;;;16.63;6.75;;;22.40;58.20;;;;;;5003719;28;20053;-50
2023/09/11 06:33:48;;;;;;;11.48;6.30;;;22.40;58.20;;;;;;5001524;28;20065;-51
2023/09/11 06:36:16;;;;;;;12.85;6.78;;;22.40;58.30;;;;;;5000680;28;20057;-55
2023/09/11 06:38:44;;;;;;;12.73;6.15;;;22.50;58.40;;;;;;5001380;28;20049;-56
2023/09/11 06:41:12;;;;;;;14.43;5.93;;;22.50;58.40;;;;;;4997203;28;20135;-53
2023/09/11 06:43:39;;;;;;;16.23;6.47;;;22.50;58.40;;;;;;5001362;28;20053;-50
2023/09/11 06:46:06;;;;;;;15.23;7.03;;;22.60;58.40;;;;;;5000782;28;20065;-50
2023/09/11 06:48:33;;;;;;;15.80;5.82;;;22.60;58.40;;;;;;4999064;28;20505;-52
2023/09/11 06:51:00;;;;;;;12.63;5.90;;;22.60;58.50;;;;;;5002420;28;20057;-52
2023/09/11 06:53:28;;;;;;;14.18;6.47;;;22.60;58.50;;;;;;5002941;28;20053;-51
2023/09/11 06:55:57;;;;;;;21.33;6.75;;;22.70;58.50;;;;;;5002184;28;20515;-52
2023/09/11 06:58:24;;;;;;;12.15;5.88;;;22.70;58.50;;;;;;5003555;28;20413;-51
2023/09/11 07:00:51;;;;;;;18.88;7.05;;;22.70;58.50;;;;;;5002221;28;20062;-58
2023/09/11 07:03:19;;;;;;;17.25;6.65;;;22.80;58.50;;;;;;5002516;28;20085;-49
2023/09/11 07:05:50;;;;;;;18.38;6.30;;;22.80;58.50;;;;;;4998115;28;20494;-55
2023/09/11 07:08:18;;;;;;;14.13;5.45;;;22.80;58.50;;;;;;5002454;28;20058;-55
2023/09/11 07:10:49;;;;;;;15.20;5.93;;;22.90;58.50;;;;;;5000462;28;20519;-52
2023/09/11 07:13:18;;;;;;;11.55;5.53;;;22.90;58.50;;;;;;5001599;28;20061;-50
2023/09/11 07:15:53;;;;;;;14.50;6.00;;;22.90;58.50;;;;;;4997719;28;20510;-55
2023/09/11 07:18:21;;;;;;;11.40;5.75;;;23.00;58.50;;;;;;4995139;28;20054;-54
2023/09/11 07:20:48;;;;;;;14.38;5.80;;;23.00;58.50;;;;;;5001135;28;20057;-52
2023/09/11 07:23:15;;;;;;;14.10;5.20;;;23.10;58.50;;;;;;5001800;28;20064;-50
2023/09/11 07:25:42;;;;;;;15.75;6.32;;;23.10;58.50;;;;;;5003515;28;20061;-53
2023/09/11 07:28:13;;;;;;;16.73;5.93;;;23.10;59.10;;;;;;5000730;28;20528;-51
2023/09/11 07:30:43;;;;;;;16.98;6.22;;;23.20;58.60;;;;;;4997357;28;20414;-54
2023/09/11 07:33:11;;;;;;;15.27;5.90;;;23.20;58.60;;;;;;4996958;28;20049;-55
2023/09/11 07:35:38;;;;;;;10.85;5.72;;;23.30;58.60;;;;;;4999266;28;20050;-48
2023/09/11 07:38:06;;;;;;;12.82;6.35;;;23.30;58.50;;;;;;5001679;28;20064;-51
2023/09/11 07:40:33;;;;;;;11.80;6.20;;;23.40;58.60;;;;;;5002566;28;20509;-51
2023/09/11 07:43:00;;;;;;;15.20;6.68;;;23.40;58.60;;;;;;5002815;28;20409;-48
2023/09/11 07:45:28;;;;;;;11.02;4.95;;;23.40;58.60;;;;;;5002255;28;20056;-51
2023/09/11 07:47:56;;;;;;;12.88;5.75;;;23.50;58.60;;;;;;5002175;28;20065;-52
2023/09/11 07:50:25;;;;;;;14.52;6.50;;;23.50;58.60;;;;;;5000421;28;20069;-48
2023/09/11 07:52:53;;;;;;;19.48;6.03;;;23.60;58.50;;;;;;4997293;28;20064;-56
2023/09/11 07:55:20;;;;;;;13.85;5.93;;;23.60;58.50;;;;;;4999393;28;20221;-51
2023/09/11 07:57:47;;;;;;;17.83;6.88;;;23.70;58.50;;;;;;5002026;28;20049;-51
2023/09/11 08:00:15;;;;;;;22.77;6.30;;;23.70;58.50;;;;;;5001955;28;20494;-52
2023/09/11 08:02:42;;;;;;;14.80;6.15;;;23.70;58.60;;;;;;4997194;28;20073;-49
2023/09/11 08:05:11;;;;;;;13.13;6.05;;;23.80;58.50;;;;;;4996123;28;20065;-47
2023/09/11 08:07:38;;;;;;;13.45;5.70;;;23.80;58.50;;;;;;4997993;28;20053;-53
2023/09/11 08:10:06;;;;;;;13.63;6.00;;;23.80;58.30;;;;;;4998962;28;20046;-48
2023/09/11 08:12:34;;;;;;;22.92;6.07;;;23.80;58.20;;;;;;4997013;28;20054;-51
2023/09/11 08:15:03;;;;;;;13.88;5.55;;;23.90;58.20;;;;;;4991981;28;20050;-51
2023/09/11 08:17:31;;;;;;;15.63;5.72;;;24.00;58.20;;;;;;5000940;28;20486;-51
2023/09/11 08:19:58;;;;;;;15.80;6.07;;;24.00;58.30;;;;;;5000863;28;20429;-47
2023/09/11 08:22:27;;;;;;;12.77;5.85;;;24.00;58.30;;;;;;4999105;28;20438;-47
2023/09/11 08:24:54;;;;;;;17.20;6.25;;;24.10;58.40;;;;;;4999057;28;20486;-56
2023/09/11 08:27:22;;;;;;;10.50;5.40;;;24.10;58.30;;;;;;5000959;28;20056;-51
2023/09/11 08:29:50;;;;;;;9.75;5.07;;;24.20;58.20;;;;;;4997735;28;20121;-49
2023/09/11 08:32:17;;;;;;;10.80;5.50;;;24.20;58.20;;;;;;4999684;28;20070;-49
2023/09/11 08:34:44;;;;;;;16.77;5.85;;;24.30;58.30;;;;;;4998381;28;20061;-48
2023/09/11 08:37:12;;;;;;;15.20;6.47;;;24.30;58.30;;;;;;4999857;28;20607;-48
2023/09/11 08:39:40;;;;;;;12.07;5.03;;;24.40;58.30;;;;;;5001749;28;20058;-47
2023/09/11 08:42:09;;;;;;;11.70;5.00;;;24.40;58.90;;;;;;5001320;28;20053;-51
2023/09/11 08:44:37;;;;;;;18.73;5.70;;;24.50;58.40;;;;;;4997111;28;20413;-45
2023/09/11 08:47:07;;;;;;;11.32;5.85;;;24.50;58.30;;;;;;4998582;28;20069;-49
2023/09/11 08:49:38;;;;;;;12.05;5.57;;;24.50;58.20;;;;;;4998150;28;20054;-53
2023/09/11 08:52:10;;;;;;;15.43;6.05;;;24.60;58.00;;;;;;4998895;28;20425;-53
2023/09/11 08:54:42;;;;;;;19.13;6.22;;;24.60;57.70;;;;;;4997867;28;20050;-49
2023/09/11 08:57:11;;;;;;;13.25;5.43;;;24.70;58.10;;;;;;4997184;28;20546;-48
2023/09/11 08:59:41;;;;;;;13.05;5.07;;;24.70;57.40;;;;;;4994676;28;20060;-47
2023/09/11 09:02:09;;;;;;;16.80;5.00;;;24.80;57.40;;;;;;4994840;28;20058;-49
2023/09/11 09:04:38;;;;;;;16.27;5.35;;;24.80;57.30;;;;;;4997077;28;20513;-51
2023/09/11 09:07:07;;;;;;;16.85;6.05;;;24.80;57.00;;;;;;4996578;28;20045;-51
2023/09/11 09:09:35;;;;;;;15.10;5.65;;;24.90;57.00;;;;;;4998586;28;20065;-51
2023/09/11 09:12:05;;;;;;;18.35;5.78;;;24.90;56.90;;;;;;4996666;28;20418;-51
2023/09/11 09:14:32;;;;;;;21.52;5.25;;;25.00;56.70;;;;;;4997766;28;20057;-50
2023/09/11 09:17:00;;;;;;;17.17;5.25;;;25.00;56.60;;;;;;4995887;28;20054;-56
2023/09/11 09:19:27;;;;;;;10.43;5.10;;;25.10;56.70;;;;;;5001212;28;20053;-55
2023/09/11 09:22:12;;;;;;;13.15;4.65;;;25.10;56.70;;;;;;5002558;28;20498;-54
2023/09/11 09:24:49;;;;;;;20.60;5.38;;;25.20;56.80;;;;;;5003616;28;20049;-53
2023/09/11 09:27:17;;;;;;;15.65;5.32;;;25.20;56.50;;;;;;5000901;28;20538;-51
2023/09/11 09:29:47;;;;;;;9.40;4.57;;;25.30;56.40;;;;;;5003027;28;20066;-47
2023/09/11 09:32:15;;;;;;;15.68;5.68;;;25.30;56.30;;;;;;5001630;28;20046;-50
2023/09/11 09:34:50;;;;;;;21.25;5.68;;;25.40;56.10;;;;;;4999843;28;20054;-48
2023/09/11 09:37:19;;;;;;;12.45;5.28;;;25.50;56.20;;;;;;5000140;28;20045;-47
2023/09/11 09:39:48;;;;;;;12.30;5.03;;;25.50;56.30;;;;;;4999762;28;20061;-48
2023/09/11 09:42:17;;;;;;;14.93;5.65;;;25.60;56.20;;;;;;4998726;28;20065;-46
2023/09/11 09:44:48;;;;;;;12.60;5.10;;;25.60;56.10;;;;;;4998770;28;20062;-50
2023/09/11 09:47:18;;;;;;;21.90;5.38;;;25.70;56.00;;;;;;4999926;28;20532;-49
2023/09/11 09:49:48;;;;;;;15.20;5.40;;;25.80;56.00;;;;;;5002949;28;20062;-49
2023/09/11 09:52:15;;;;;;;17.00;4.72;;;25.80;56.00;;;;;;4999389;28;20069;-53
2023/09/11 09:54:44;;;;;;;16.13;5.13;;;25.90;56.00;;;;;;5000161;28;20050;-53
2023/09/11 09:57:13;;;;;;;14.20;5.38;;;26.00;56.20;;;;;;4998528;28;20077;-53
2023/09/11 09:59:42;;;;;;;15.23;5.45;;;26.00;56.00;;;;;;5001277;28;20057;-49
2023/09/11 10:02:12;;;;;;;14.15;5.30;;;26.10;55.60;;;;;;4998864;28;20049;-48
2023/09/11 10:04:40;;;;;;;12.93;4.88;;;26.20;55.60;;;;;;4993730;28;20046;-50
2023/09/11 10:07:07;;;;;;;14.90;4.95;;;26.20;55.40;;;;;;4997432;28;20046;-48
2023/09/11 10:09:35;;;;;;;17.20;5.55;;;26.30;55.40;;;;;;5002245;28;20054;-48
2023/09/11 10:12:04;;;;;;;12.85;4.65;;;26.40;55.10;;;;;;5002475;28;20512;-46
2023/09/11 10:14:32;;;;;;;12.52;5.72;;;26.40;55.00;;;;;;5000648;28;20416;-50
2023/09/11 10:17:04;;;;;;;11.00;5.13;;;26.50;55.00;;;;;;4999528;28;20053;-48
2023/09/11 10:19:33;;;;;;;12.90;4.85;;;26.50;54.70;;;;;;4999880;28;20058;-51
2023/09/11 10:22:00;;;;;;;11.30;4.70;;;26.60;54.60;;;;;;5000314;28;20057;-46
2023/09/11 10:24:27;;;;;;;12.90;4.78;;;26.60;54.60;;;;;;4997081;28;20060;-46
2023/09/11 10:26:59;;;;;;;14.98;5.35;;;26.70;54.70;;;;;;5001074;28;20050;-59
2023/09/11 10:29:41;;;;;;;19.83;6.05;;;26.70;54.60;;;;;;5000251;28;20116;-56
2023/09/11 10:32:16;;;;;;;13.23;4.88;;;26.80;54.10;;;;;;4999489;28;20418;-56
2023/09/11 10:34:43;;;;;;;15.10;5.22;;;26.90;54.20;;;;;;4997027;28;20077;-56
2023/09/11 10:37:11;;;;;;;15.00;4.57;;;26.90;54.10;;;;;;4997905;28;20057;-55
2023/09/11 10:39:39;;;;;;;13.95;4.72;;;27.00;53.90;;;;;;4999035;28;20053;-56
2023/09/11 10:42:06;;;;;;;14.90;5.47;;;27.00;53.70;;;;;;4995267;28;20418;-55
2023/09/11 10:44:37;;;;;;;13.77;4.72;;;27.10;54.00;;;;;;4999218;28;20050;-56
2023/09/11 10:47:05;;;;;;;15.23;4.70;;;27.20;54.00;;;;;;4999308;28;20053;-57
2023/09/11 10:49:40;;;;;;;14.35;4.93;;;27.20;54.00;;;;;;4998676;28;20058;-54
2023/09/11 10:52:08;;;;;;;11.65;5.05;;;27.20;53.40;;;;;;4997549;28;20057;-57
2023/09/11 10:54:36;;;;;;;16.40;4.95;;;27.30;53.50;;;;;;4997421;28;20061;-56
2023/09/11 10:57:05;;;;;;;13.50;4.68;;;27.40;53.40;;;;;;4997539;28;20057;-58
2023/09/11 10:59:33;;;;;;;13.93;5.00;;;27.50;53.30;;;;;;4999762;28;20050;-57
2023/09/11 11:02:00;;;;;;;14.57;5.22;;;27.50;53.10;;;;;;4997454;28;20056;-53
2023/09/11 11:04:31;;;;;;;18.63;5.32;;;27.60;53.10;;;;;;4996706;28;20058;-57
2023/09/11 11:07:02;;;;;;;12.00;4.93;;;27.60;52.90;;;;;;4998860;28;20628;-56
2023/09/11 11:09:34;;;;;;;13.63;4.85;;;27.60;52.80;;;;;;4998186;28;20096;-56
2023/09/11 11:12:04;;;;;;;16.92;4.50;;;27.70;52.70;;;;;;4995716;28;20061;-56
2023/09/11 11:14:32;;;;;;;11.07;4.38;;;27.80;52.70;;;;;;4998441;28;20050;-56
2023/09/11 11:17:03;;;;;;;9.40;4.20;;;27.80;52.80;;;;;;4997767;28;20058;-55
2023/09/11 11:19:31;;;;;;;10.32;4.90;;;27.90;52.40;;;;;;4999604;28;20062;-55
2023/09/11 11:22:02;;;;;;;13.88;4.88;;;27.90;52.20;;;;;;4995445;28;20069;-57
2023/09/11 11:24:51;;;;;;;11.13;4.80;;;28.00;51.90;;;;;;5000958;28;20398;-58
2023/09/11 11:27:18;;;;;;;9.82;4.10;;;28.00;51.60;;;;;;4996186;28;20062;-57
2023/09/11 11:29:46;;;;;;;13.15;5.18;;;28.10;51.70;;;;;;4998514;28;20084;-55
2023/09/11 11:32:14;;;;;;;8.88;4.80;;;28.10;51.60;;;;;;4997685;28;20520;-57
2023/09/11 11:34:44;;;;;;;12.55;4.70;;;28.10;51.60;;;;;;4999309;28;20359;-55
2023/09/11 11:37:16;;;;;;;13.65;5.03;;;28.20;51.40;;;;;;4997849;28;20057;-57
2023/09/11 11:39:44;;;;;;;12.13;4.43;;;28.20;51.20;;;;;;4980055;28;20053;-58
2023/09/11 11:42:13;;;;;;;10.70;4.65;;;28.30;51.10;;;;;;4997418;28;20060;-55
2023/09/11 11:44:41;;;;;;;10.80;4.97;;;28.30;51.00;;;;;;4998662;28;20053;-57
2023/09/11 11:47:09;;;;;;;9.63;4.18;;;28.30;51.10;;;;;;4995561;28;20050;-53
2023/09/11 11:49:36;;;;;;;11.13;4.38;;;28.40;51.00;;;;;;4997767;28;20073;-56
2023/09/11 11:52:05;;;;;;;15.27;4.60;;;28.40;50.90;;;;;;4997938;28;20061;-57
2023/09/11 11:54:35;;;;;;;14.00;4.50;;;28.40;50.70;;;;;;4998521;28;20058;-59
2023/09/11 11:57:04;;;;;;;10.95;4.07;;;28.50;50.70;;;;;;4996329;28;20050;-56
2023/09/11 11:59:33;;;;;;;12.45;4.80;;;28.50;50.80;;;;;;4999498;28;20517;-56
2023/09/11 12:02:01;;;;;;;10.10;4.60;;;28.60;50.70;;;;;;4999417;28;20524;-56
2023/09/11 12:04:28;;;;;;;12.13;4.80;;;28.60;50.60;;;;;;4998846;28;20064;-55
2023/09/11 12:06:57;;;;;;;9.02;4.28;;;28.70;50.40;;;;;;4998835;28;20061;-57
2023/09/11 12:09:25;;;;;;;8.85;4.05;;;28.70;50.20;;;;;;5000942;28;20068;-56
2023/09/11 12:11:54;;;;;;;13.07;5.03;;;28.80;49.90;;;;;;5000778;28;20485;-56
2023/09/11 12:14:21;;;;;;;7.75;4.18;;;28.80;49.70;;;;;;5000505;28;20049;-57
2023/09/11 12:16:48;;;;;;;14.32;4.78;;;28.80;49.50;;;;;;4997894;28;20049;-56
2023/09/11 12:19:18;;;;;;;11.95;4.53;;;28.90;49.30;;;;;;4998610;28;21154;-55
2023/09/11 12:21:46;;;;;;;19.45;5.25;;;28.90;48.90;;;;;;4992117;28;20053;-54
2023/09/11 12:24:13;;;;;;;12.63;4.53;;;28.90;48.80;;;;;;4994824;28;20049;-55
2023/09/11 12:26:41;;;;;;;8.15;4.22;;;29.00;49.00;;;;;;4998107;28;20053;-57
2023/09/11 12:29:09;;;;;;;10.32;4.35;;;29.00;48.90;;;;;;4996583;28;20057;-56
2023/09/11 12:31:37;;;;;;;9.40;4.32;;;29.00;48.70;;;;;;4996388;28;20050;-56
2023/09/11 12:34:04;;;;;;;7.63;4.30;;;29.10;48.80;;;;;;4998659;28;20060;-57
2023/09/11 12:36:33;;;;;;;9.60;4.30;;;29.10;48.70;;;;;;4997148;28;20053;-56
2023/09/11 12:39:00;;;;;;;11.32;4.68;;;29.10;48.50;;;;;;4996656;28;20054;-56
2023/09/11 12:41:28;;;;;;;10.57;4.43;;;29.10;48.20;;;;;;4997162;28;20064;-57
2023/09/11 12:43:55;;;;;;;8.90;4.57;;;29.10;48.00;;;;;;4996372;28;20046;-57
2023/09/11 12:46:24;;;;;;;11.60;4.97;;;29.20;47.90;;;;;;4994014;28;20509;-58
2023/09/11 12:48:51;;;;;;;13.38;4.70;;;29.20;47.70;;;;;;4998831;28;20058;-55
2023/09/11 12:51:19;;;;;;;7.35;4.00;;;29.20;47.70;;;;;;4997541;28;20049;-57